createdAt,value
2018-07-23T00:00:08.710Z,19.62
2018-07-23T00:01:08.711Z,19.65
2018-07-23T00:02:08.709Z,19.67
2018-07-23T00:03:08.701Z,19.71
2018-07-23T00:04:08.698Z,19.67
2018-07-23T00:05:08.697Z,19.62
2018-07-23T00:06:08.691Z,19.64
2018-07-23T00:07:08.694Z,19.67
2018-07-23T00:08:08.705Z,19.60
2018-07-23T00:09:08.688Z,19.70
2018-07-23T00:10:08.692Z,19.72
2018-07-23T00:11:08.677Z,19.79
2018-07-23T00:12:08.676Z,19.80
2018-07-23T00:13:08.671Z,19.80
2018-07-23T00:14:08.675Z,19.78
2018-07-23T00:15:08.673Z,19.78
2018-07-23T00:16:08.665Z,19.76
2018-07-23T00:17:08.664Z,19.80
2018-07-23T00:18:08.660Z,19.76
2018-07-23T00:19:08.664Z,19.75
2018-07-23T00:20:08.653Z,19.65
2018-07-23T00:21:08.650Z,19.61
2018-07-23T00:22:08.645Z,19.62
2018-07-23T00:23:08.648Z,19.61
2018-07-23T00:24:08.639Z,19.70
2018-07-23T00:25:08.642Z,19.67
2018-07-23T00:26:08.640Z,19.68
2018-07-23T00:27:08.635Z,19.60
2018-07-23T00:28:08.632Z,19.62
2018-07-23T00:29:08.627Z,19.55
2018-07-23T00:30:08.623Z,19.60
2018-07-23T00:31:08.623Z,19.65
2018-07-23T00:32:08.616Z,19.64
2018-07-23T00:33:08.616Z,19.57
2018-07-23T00:34:08.612Z,19.65
2018-07-23T00:35:08.609Z,19.65
2018-07-23T00:36:08.606Z,19.62
2018-07-23T00:37:08.607Z,19.67
2018-07-23T00:38:08.603Z,19.64
2018-07-23T00:39:08.596Z,19.58
2018-07-23T00:40:08.593Z,19.58
2018-07-23T00:41:08.591Z,19.62
2018-07-23T00:42:08.589Z,19.76
2018-07-23T00:43:08.589Z,19.78
2018-07-23T00:44:08.580Z,19.86
2018-07-23T00:45:08.590Z,19.82
2018-07-23T00:46:08.577Z,19.80
2018-07-23T00:47:08.571Z,19.82
2018-07-23T00:48:08.570Z,19.75
2018-07-23T00:49:08.567Z,19.79
2018-07-23T00:50:08.565Z,19.80
2018-07-23T00:51:08.561Z,19.78
2018-07-23T00:52:08.558Z,19.72
2018-07-23T00:53:08.556Z,19.76
2018-07-23T00:54:08.552Z,19.72
2018-07-23T00:55:08.551Z,19.70
2018-07-23T00:56:08.551Z,19.62
2018-07-23T00:57:08.543Z,19.67
2018-07-23T00:58:08.538Z,19.60
2018-07-23T00:59:08.537Z,19.62
2018-07-23T01:00:08.532Z,19.62
2018-07-23T01:01:08.530Z,19.61
2018-07-23T01:02:08.531Z,19.52
2018-07-23T01:03:08.525Z,19.55
2018-07-23T01:04:08.520Z,19.57
2018-07-23T01:05:08.519Z,19.57
2018-07-23T01:06:08.515Z,19.64
2018-07-23T01:07:08.513Z,19.62
2018-07-23T01:08:08.513Z,19.78
2018-07-23T01:09:08.505Z,19.72
2018-07-23T01:10:08.503Z,19.78
2018-07-23T01:11:08.501Z,19.75
2018-07-23T01:12:08.498Z,19.76
2018-07-23T01:13:08.493Z,19.76
2018-07-23T01:14:08.491Z,19.76
2018-07-23T01:15:08.492Z,19.75
2018-07-23T01:16:08.483Z,19.67
2018-07-23T01:17:08.480Z,19.65
2018-07-23T01:18:08.479Z,19.53
2018-07-23T01:19:08.479Z,19.55
2018-07-23T01:20:08.472Z,19.57
2018-07-23T01:21:08.474Z,19.49
2018-07-23T01:22:08.464Z,19.31
2018-07-23T01:23:08.462Z,19.20
2018-07-23T01:24:08.467Z,19.17
2018-07-23T01:25:08.455Z,19.07
2018-07-23T01:26:08.455Z,19.15
2018-07-23T01:27:08.448Z,19.02
2018-07-23T01:28:08.451Z,19.05
2018-07-23T01:29:08.443Z,19.02
2018-07-23T01:30:08.445Z,19.05
2018-07-23T01:31:08.437Z,19.09
2018-07-23T01:32:08.432Z,19.01
2018-07-23T01:33:08.433Z,19.02
2018-07-23T01:34:08.425Z,19.10
2018-07-23T01:35:08.421Z,19.07
2018-07-23T01:36:08.417Z,19.16
2018-07-23T01:37:08.413Z,19.10
2018-07-23T01:38:08.416Z,19.16
2018-07-23T01:39:08.408Z,19.06
2018-07-23T01:40:08.403Z,19.10
2018-07-23T01:41:08.402Z,19.12
2018-07-23T01:42:08.397Z,19.20
2018-07-23T01:43:08.399Z,19.17
2018-07-23T01:44:08.388Z,19.24
2018-07-23T01:45:08.387Z,19.17
2018-07-23T01:46:08.387Z,19.24
2018-07-23T01:47:08.378Z,19.23
2018-07-23T01:48:08.375Z,19.24
2018-07-23T01:49:08.375Z,19.23
2018-07-23T01:50:08.372Z,19.27
2018-07-23T01:51:08.368Z,19.34
2018-07-23T01:52:08.365Z,19.25
2018-07-23T01:53:08.360Z,19.28
2018-07-23T01:54:08.357Z,19.28
2018-07-23T01:55:08.363Z,19.25
2018-07-23T01:56:08.360Z,19.23
2018-07-23T01:57:08.352Z,19.28
2018-07-23T01:58:08.344Z,19.28
2018-07-23T01:59:08.345Z,19.30
2018-07-23T02:00:08.336Z,19.28
2018-07-23T02:01:08.341Z,19.28
2018-07-23T02:02:08.335Z,19.27
2018-07-23T02:03:08.327Z,19.25
2018-07-23T02:04:08.323Z,19.24
2018-07-23T02:05:08.320Z,19.24
2018-07-23T02:06:08.321Z,19.28
2018-07-23T02:07:08.320Z,19.28
2018-07-23T02:08:08.316Z,19.24
2018-07-23T02:09:08.313Z,19.27
2018-07-23T02:10:08.309Z,19.31
2018-07-23T02:11:08.305Z,19.27
2018-07-23T02:12:08.297Z,19.34
2018-07-23T02:13:08.292Z,19.30
2018-07-23T02:14:08.292Z,19.27
2018-07-23T02:15:08.294Z,19.30
2018-07-23T02:16:08.286Z,19.23
2018-07-23T02:17:08.286Z,19.31
2018-07-23T02:18:08.301Z,19.23
2018-07-23T02:19:08.281Z,19.23
2018-07-23T02:20:08.272Z,19.16
2018-07-23T02:21:08.266Z,19.17
2018-07-23T02:22:08.271Z,19.16
2018-07-23T02:23:08.264Z,19.16
2018-07-23T02:24:08.259Z,19.17
2018-07-23T02:25:08.257Z,19.13
2018-07-23T02:26:08.253Z,19.24
2018-07-23T02:27:08.256Z,19.16
2018-07-23T02:28:08.245Z,19.13
2018-07-23T02:29:08.241Z,19.17
2018-07-23T02:30:08.242Z,19.24
2018-07-23T02:31:08.242Z,19.25
2018-07-23T02:32:08.238Z,19.28
2018-07-23T02:33:08.228Z,19.13
2018-07-23T02:34:08.278Z,19.10
2018-07-23T02:35:08.225Z,19.15
2018-07-23T02:36:08.221Z,19.05
2018-07-23T02:37:08.214Z,19.01
2018-07-23T02:38:08.214Z,19.05
2018-07-23T02:39:08.214Z,19.01
2018-07-23T02:40:08.205Z,19.05
2018-07-23T02:41:08.201Z,19.02
2018-07-23T02:42:08.202Z,19.02
2018-07-23T02:43:08.196Z,19.05
2018-07-23T02:44:08.198Z,19.01
2018-07-23T02:45:08.187Z,18.99
2018-07-23T02:46:08.190Z,18.96
2018-07-23T02:47:08.184Z,19.06
2018-07-23T02:48:08.178Z,19.05
2018-07-23T02:49:08.175Z,19.01
2018-07-23T02:50:08.179Z,19.02
2018-07-23T02:51:08.168Z,19.02
2018-07-23T02:52:08.164Z,19.10
2018-07-23T02:53:08.163Z,19.23
2018-07-23T02:54:08.164Z,19.12
2018-07-23T02:55:08.156Z,19.21
2018-07-23T02:56:08.153Z,19.12
2018-07-23T02:57:08.149Z,19.13
2018-07-23T02:58:08.146Z,19.28
2018-07-23T02:59:08.143Z,19.25
2018-07-23T03:00:08.138Z,19.28
2018-07-23T03:01:08.136Z,19.30
2018-07-23T03:02:08.133Z,19.28
2018-07-23T03:03:08.132Z,19.28
2018-07-23T03:04:08.129Z,19.17
2018-07-23T03:05:08.126Z,19.15
2018-07-23T03:06:08.119Z,19.17
2018-07-23T03:07:08.116Z,19.23
2018-07-23T03:08:08.112Z,19.15
2018-07-23T03:09:08.110Z,19.17
2018-07-23T03:10:08.111Z,19.21
2018-07-23T03:11:08.129Z,19.15
2018-07-23T03:12:08.102Z,19.13
2018-07-23T03:13:08.102Z,19.09
2018-07-23T03:14:08.093Z,19.20
2018-07-23T03:15:08.091Z,19.13
2018-07-23T03:16:08.085Z,19.12
2018-07-23T03:17:08.082Z,19.05
2018-07-23T03:18:08.079Z,19.16
2018-07-23T03:19:08.076Z,19.16
2018-07-23T03:20:08.071Z,19.06
2018-07-23T03:21:08.071Z,19.10
2018-07-23T03:22:08.066Z,19.01
2018-07-23T03:23:08.063Z,19.06
2018-07-23T03:24:08.058Z,19.06
2018-07-23T03:25:08.054Z,19.13
2018-07-23T03:26:08.053Z,19.13
2018-07-23T03:27:08.053Z,19.16
2018-07-23T03:28:08.044Z,19.06
2018-07-23T03:29:08.057Z,19.07
2018-07-23T03:30:08.039Z,19.07
2018-07-23T03:31:08.042Z,19.05
2018-07-23T03:32:08.035Z,19.07
2018-07-23T03:33:08.029Z,19.12
2018-07-23T03:34:08.025Z,19.15
2018-07-23T03:35:08.028Z,19.13
2018-07-23T03:36:08.017Z,19.07
2018-07-23T03:37:08.015Z,19.06
2018-07-23T03:38:08.015Z,19.10
2018-07-23T03:39:08.011Z,19.05
2018-07-23T03:40:08.005Z,19.07
2018-07-23T03:41:08.001Z,19.07
2018-07-23T03:42:07.998Z,19.10
2018-07-23T03:43:07.996Z,19.05
2018-07-23T03:44:07.995Z,19.05
2018-07-23T03:45:07.995Z,19.05
2018-07-23T03:46:07.990Z,19.02
2018-07-23T03:47:07.981Z,19.07
2018-07-23T03:48:07.980Z,19.05
2018-07-23T03:49:07.977Z,19.02
2018-07-23T03:50:07.978Z,19.06
2018-07-23T03:51:07.968Z,18.99
2018-07-23T03:52:07.970Z,18.97
2018-07-23T03:53:07.962Z,19.05
2018-07-23T03:54:07.959Z,18.93
2018-07-23T03:55:07.956Z,18.99
2018-07-23T03:56:07.957Z,19.09
2018-07-23T03:57:07.949Z,19.01
2018-07-23T03:58:07.945Z,19.05
2018-07-23T03:59:07.947Z,19.02
2018-07-23T04:00:07.944Z,19.06
2018-07-23T04:01:07.940Z,19.09
2018-07-23T04:02:07.934Z,19.17
2018-07-23T04:03:07.934Z,19.02
2018-07-23T04:04:07.925Z,19.06
2018-07-23T04:05:07.922Z,19.17
2018-07-23T04:06:07.923Z,19.05
2018-07-23T04:07:07.914Z,19.06
2018-07-23T04:08:07.962Z,19.07
2018-07-23T04:09:07.913Z,19.06
2018-07-23T04:10:07.991Z,19.16
2018-07-23T04:11:07.904Z,19.12
2018-07-23T04:12:07.898Z,19.12
2018-07-23T04:13:07.902Z,19.16
2018-07-23T04:14:07.898Z,19.07
2018-07-23T04:15:07.888Z,19.13
2018-07-23T04:16:07.885Z,19.09
2018-07-23T04:17:07.882Z,19.20
2018-07-23T04:18:07.880Z,19.10
2018-07-23T04:19:07.875Z,19.16
2018-07-23T04:20:07.872Z,19.10
2018-07-23T04:21:07.870Z,19.06
2018-07-23T04:22:07.865Z,19.07
2018-07-23T04:23:07.863Z,19.01
2018-07-23T04:24:07.859Z,19.09
2018-07-23T04:25:07.855Z,19.12
2018-07-23T04:26:07.854Z,19.09
2018-07-23T04:27:07.853Z,19.17
2018-07-23T04:28:07.844Z,19.13
2018-07-23T04:29:07.843Z,19.13
2018-07-23T04:30:07.837Z,19.31
2018-07-23T04:31:07.838Z,19.28
2018-07-23T04:32:07.831Z,19.28
2018-07-23T04:33:07.828Z,19.27
2018-07-23T04:34:07.825Z,19.16
2018-07-23T04:35:07.827Z,19.27
2018-07-23T04:36:07.817Z,19.27
2018-07-23T04:37:07.814Z,19.30
2018-07-23T04:38:07.811Z,19.25
2018-07-23T04:39:07.810Z,19.24
2018-07-23T04:40:07.808Z,19.32
2018-07-23T04:41:07.807Z,19.24
2018-07-23T04:42:07.802Z,19.28
2018-07-23T04:43:07.795Z,19.34
2018-07-23T04:44:07.790Z,19.32
2018-07-23T04:45:07.792Z,19.39
2018-07-23T04:46:07.783Z,19.31
2018-07-23T04:47:07.785Z,19.34
2018-07-23T04:48:07.777Z,19.34
2018-07-23T04:49:07.778Z,19.38
2018-07-23T04:50:07.770Z,19.42
2018-07-23T04:51:07.774Z,19.46
2018-07-23T04:52:07.763Z,19.50
2018-07-23T04:53:07.760Z,19.47
2018-07-23T04:54:07.757Z,19.53
2018-07-23T04:55:07.777Z,19.52
2018-07-23T04:56:07.750Z,19.47
2018-07-23T04:57:07.749Z,19.46
2018-07-23T04:58:07.751Z,19.45
2018-07-23T04:59:07.744Z,19.39
2018-07-23T05:00:07.738Z,19.42
2018-07-23T05:01:07.740Z,19.52
2018-07-23T05:02:07.739Z,19.42
2018-07-23T05:03:07.728Z,19.52
2018-07-23T05:04:07.726Z,19.35
2018-07-23T05:05:07.721Z,19.53
2018-07-23T05:06:07.718Z,19.50
2018-07-23T05:07:07.724Z,19.58
2018-07-23T05:08:07.712Z,19.52
2018-07-23T05:09:07.710Z,19.60
2018-07-23T05:10:07.709Z,19.58
2018-07-23T05:11:07.705Z,19.60
2018-07-23T05:12:07.723Z,19.64
2018-07-23T05:13:07.697Z,19.61
2018-07-23T05:14:07.712Z,19.60
2018-07-23T05:15:07.692Z,19.65
2018-07-23T05:16:07.691Z,19.71
2018-07-23T05:17:07.687Z,19.67
2018-07-23T05:18:07.685Z,19.68
2018-07-23T05:19:07.680Z,19.64
2018-07-23T05:20:07.674Z,19.67
2018-07-23T05:21:07.673Z,19.68
2018-07-23T05:22:07.671Z,19.72
2018-07-23T05:23:07.667Z,19.75
2018-07-23T05:24:07.664Z,19.75
2018-07-23T05:25:07.667Z,19.75
2018-07-23T05:26:07.682Z,19.76
2018-07-23T05:27:07.655Z,19.82
2018-07-23T05:28:07.652Z,19.90
2018-07-23T05:29:07.647Z,19.86
2018-07-23T05:30:07.647Z,19.90
2018-07-23T05:31:07.643Z,20.01
2018-07-23T05:32:07.642Z,19.92
2018-07-23T05:33:07.641Z,19.92
2018-07-23T05:34:07.637Z,19.94
2018-07-23T05:35:07.631Z,19.94
2018-07-23T05:36:07.626Z,19.95
2018-07-23T05:37:07.623Z,19.94
2018-07-23T05:38:07.620Z,19.92
2018-07-23T05:39:07.618Z,19.87
2018-07-23T05:40:07.613Z,19.97
2018-07-23T05:41:07.612Z,19.90
2018-07-23T05:42:07.628Z,19.97
2018-07-23T05:43:07.606Z,19.90
2018-07-23T05:44:07.601Z,19.95
2018-07-23T05:45:07.599Z,20.00
2018-07-23T05:46:07.601Z,20.07
2018-07-23T05:47:07.593Z,20.02
2018-07-23T05:48:07.595Z,20.07
2018-07-23T05:49:07.587Z,20.05
2018-07-23T05:50:07.584Z,20.08
2018-07-23T05:51:07.582Z,20.05
2018-07-23T05:52:07.578Z,20.07
2018-07-23T05:53:07.574Z,20.04
2018-07-23T05:54:07.575Z,20.04
2018-07-23T05:55:07.568Z,19.98
2018-07-23T05:56:07.565Z,20.10
2018-07-23T05:57:07.565Z,20.17
2018-07-23T05:58:07.562Z,20.10
2018-07-23T05:59:07.557Z,20.13
2018-07-23T06:00:07.554Z,20.16
2018-07-23T06:01:07.551Z,20.26
2018-07-23T06:02:07.548Z,20.19
2018-07-23T06:03:07.549Z,20.33
2018-07-23T06:04:07.547Z,20.30
2018-07-23T06:05:07.543Z,20.38
2018-07-23T06:06:07.548Z,20.35
2018-07-23T06:07:07.535Z,20.40
2018-07-23T06:08:07.536Z,20.40
2018-07-23T06:09:07.534Z,20.48
2018-07-23T06:10:07.528Z,20.50
2018-07-23T06:11:07.526Z,20.51
2018-07-23T06:12:07.520Z,20.54
2018-07-23T06:13:07.558Z,20.66
2018-07-23T06:14:07.519Z,20.61
2018-07-23T06:15:07.517Z,20.64
2018-07-23T06:16:07.510Z,20.63
2018-07-23T06:17:07.511Z,20.63
2018-07-23T06:18:07.505Z,20.58
2018-07-23T06:19:07.508Z,20.64
2018-07-23T06:20:07.500Z,20.64
2018-07-23T06:21:07.496Z,20.73
2018-07-23T06:22:07.495Z,20.72
2018-07-23T06:23:07.492Z,20.78
2018-07-23T06:24:07.493Z,20.83
2018-07-23T06:25:07.486Z,20.88
2018-07-23T06:26:07.483Z,20.93
2018-07-23T06:27:07.487Z,20.94
2018-07-23T06:28:07.479Z,20.96
2018-07-23T06:29:07.481Z,20.96
2018-07-23T06:30:07.556Z,20.98
2018-07-23T06:31:07.473Z,20.98
2018-07-23T06:32:07.474Z,21.00
2018-07-23T06:33:07.468Z,21.08
2018-07-23T06:34:07.465Z,21.18
2018-07-23T06:35:07.462Z,21.19
2018-07-23T06:36:07.463Z,21.16
2018-07-23T06:37:07.458Z,21.34
2018-07-23T06:38:07.457Z,21.28
2018-07-23T06:39:07.455Z,21.40
2018-07-23T06:40:07.450Z,21.43
2018-07-23T06:41:07.448Z,21.49
2018-07-23T06:42:07.450Z,21.46
2018-07-23T06:43:07.443Z,21.52
2018-07-23T06:44:07.440Z,21.63
2018-07-23T06:45:07.449Z,21.59
2018-07-23T06:46:07.443Z,21.51
2018-07-23T06:47:07.436Z,21.51
2018-07-23T06:48:07.433Z,21.46
2018-07-23T06:49:07.432Z,21.36
2018-07-23T06:50:07.434Z,21.34
2018-07-23T06:51:07.433Z,21.27
2018-07-23T06:52:07.426Z,21.22
2018-07-23T06:53:07.423Z,21.30
2018-07-23T06:54:07.470Z,21.45
2018-07-23T06:55:07.418Z,21.38
2018-07-23T06:56:07.418Z,21.37
2018-07-23T06:57:07.420Z,21.52
2018-07-23T06:58:07.414Z,21.56
2018-07-23T06:59:07.413Z,21.64
2018-07-23T07:00:07.410Z,21.74
2018-07-23T07:01:07.407Z,21.75
2018-07-23T07:02:07.405Z,21.89
2018-07-23T07:03:07.437Z,22.05
2018-07-23T07:04:07.405Z,22.09
2018-07-23T07:05:07.401Z,22.05
2018-07-23T07:06:07.403Z,22.15
2018-07-23T07:07:07.398Z,22.23
2018-07-23T07:08:07.394Z,22.23
2018-07-23T07:09:07.404Z,22.23
2018-07-23T07:10:07.391Z,22.21
2018-07-23T07:11:07.391Z,22.33
2018-07-23T07:12:07.387Z,22.42
2018-07-23T07:13:07.385Z,22.52
2018-07-23T07:14:07.384Z,22.56
2018-07-23T07:15:07.389Z,22.64
2018-07-23T07:16:07.379Z,22.78
2018-07-23T07:17:07.384Z,22.91
2018-07-23T07:18:07.378Z,22.97
2018-07-23T07:19:07.379Z,23.03
2018-07-23T07:20:07.375Z,23.06
2018-07-23T07:21:07.378Z,23.09
2018-07-23T07:22:07.380Z,23.12
2018-07-23T07:23:07.372Z,23.11
2018-07-23T07:24:07.372Z,23.11
2018-07-23T07:25:07.372Z,23.23
2018-07-23T07:26:07.370Z,23.16
2018-07-23T07:27:07.371Z,23.21
2018-07-23T07:28:07.370Z,23.21
2018-07-23T07:29:07.365Z,23.19
2018-07-23T07:30:07.367Z,23.18
2018-07-23T07:31:07.368Z,23.22
2018-07-23T07:32:07.360Z,23.29
2018-07-23T07:33:07.360Z,23.31
2018-07-23T07:34:07.365Z,23.26
2018-07-23T07:35:07.359Z,23.31
2018-07-23T07:36:07.356Z,23.26
2018-07-23T07:37:07.357Z,23.16
2018-07-23T07:38:07.470Z,23.16
2018-07-23T07:39:07.355Z,23.25
2018-07-23T07:40:07.353Z,23.09
2018-07-23T07:41:07.354Z,23.26
2018-07-23T07:42:07.407Z,23.35
2018-07-23T07:43:07.351Z,23.50
2018-07-23T07:44:07.350Z,23.42
2018-07-23T07:45:07.349Z,23.63
2018-07-23T07:46:07.354Z,23.57
2018-07-23T07:47:07.349Z,23.56
2018-07-23T07:48:07.347Z,23.50
2018-07-23T07:49:07.350Z,23.57
2018-07-23T07:50:07.346Z,23.79
2018-07-23T07:51:07.346Z,23.82
2018-07-23T07:52:07.358Z,23.90
2018-07-23T07:53:07.346Z,23.90
2018-07-23T07:54:07.345Z,23.86
2018-07-23T07:55:07.344Z,24.05
2018-07-23T07:56:07.341Z,24.02
2018-07-23T07:57:07.348Z,24.18
2018-07-23T07:58:07.348Z,24.15
2018-07-23T07:59:07.410Z,24.18
2018-07-23T08:00:07.341Z,24.16
2018-07-23T08:01:07.343Z,24.12
2018-07-23T08:02:07.347Z,23.89
2018-07-23T08:03:07.345Z,23.90
2018-07-23T08:04:07.341Z,23.82
2018-07-23T08:05:07.339Z,23.94
2018-07-23T08:06:07.339Z,23.89
2018-07-23T08:07:07.363Z,24.02
2018-07-23T08:08:07.345Z,24.02
2018-07-23T08:09:07.339Z,24.05
2018-07-23T08:10:07.338Z,24.16
2018-07-23T08:11:07.339Z,24.23
2018-07-23T08:12:07.338Z,24.33
2018-07-23T08:13:07.335Z,24.26
2018-07-23T08:14:07.343Z,24.31
2018-07-23T08:15:07.343Z,24.26
2018-07-23T08:16:07.341Z,24.30
2018-07-23T08:17:07.335Z,24.33
2018-07-23T08:18:07.339Z,24.34
2018-07-23T08:19:07.337Z,24.36
2018-07-23T08:20:07.336Z,24.46
2018-07-23T08:21:07.334Z,24.51
2018-07-23T08:22:07.338Z,24.59
2018-07-23T08:23:07.335Z,24.66
2018-07-23T08:24:07.337Z,24.67
2018-07-23T08:25:07.342Z,24.98
2018-07-23T08:26:07.340Z,24.97
2018-07-23T08:27:07.336Z,25.02
2018-07-23T08:28:07.340Z,25.01
2018-07-23T08:29:07.337Z,25.16
2018-07-23T08:30:07.335Z,25.24
2018-07-23T08:31:07.336Z,25.27
2018-07-23T08:32:07.423Z,25.38
2018-07-23T08:33:07.335Z,25.45
2018-07-23T08:34:07.341Z,25.54
2018-07-23T08:35:07.342Z,25.56
2018-07-23T08:36:07.344Z,25.53
2018-07-23T08:37:07.485Z,25.64
2018-07-23T08:38:07.340Z,25.67
2018-07-23T08:39:07.346Z,25.63
2018-07-23T08:40:07.346Z,25.66
2018-07-23T08:41:07.345Z,25.66
2018-07-23T08:42:07.343Z,25.66
2018-07-23T08:43:07.407Z,25.66
2018-07-23T08:44:07.343Z,25.71
2018-07-23T08:45:07.385Z,25.69
2018-07-23T08:46:07.344Z,25.71
2018-07-23T08:47:07.345Z,25.45
2018-07-23T08:48:07.353Z,25.46
2018-07-23T08:49:07.347Z,25.46
2018-07-23T08:50:07.347Z,25.39
2018-07-23T08:51:07.349Z,25.45
2018-07-23T08:52:07.349Z,25.56
2018-07-23T08:53:07.449Z,25.74
2018-07-23T08:54:07.354Z,25.72
2018-07-23T08:55:07.351Z,25.91
2018-07-23T08:56:07.373Z,26.04
2018-07-23T08:57:07.353Z,26.06
2018-07-23T08:58:07.354Z,26.13
2018-07-23T08:59:07.359Z,26.19
2018-07-23T09:00:07.359Z,26.21
2018-07-23T09:01:07.362Z,26.24
2018-07-23T09:02:07.361Z,26.31
2018-07-23T09:03:07.360Z,26.39
2018-07-23T09:04:07.360Z,26.28
2018-07-23T09:05:07.362Z,26.24
2018-07-23T09:06:07.362Z,26.29
2018-07-23T09:07:07.364Z,26.34
2018-07-23T09:08:07.372Z,26.36
2018-07-23T09:09:07.368Z,26.47
2018-07-23T09:10:07.373Z,26.49
2018-07-23T09:11:07.370Z,26.61
2018-07-23T09:12:07.375Z,26.57
2018-07-23T09:13:07.372Z,26.56
2018-07-23T09:14:07.375Z,26.68
2018-07-23T09:15:07.481Z,26.75
2018-07-23T09:16:07.377Z,26.97
2018-07-23T09:17:07.432Z,27.05
2018-07-23T09:18:07.384Z,27.18
2018-07-23T09:19:07.383Z,27.38
2018-07-23T09:20:07.385Z,27.77
2018-07-23T09:21:07.386Z,27.77
2018-07-23T09:22:07.408Z,27.77
2018-07-23T09:23:07.391Z,27.77
2018-07-23T09:24:07.391Z,27.86
2018-07-23T09:25:07.393Z,27.90
2018-07-23T09:26:07.402Z,27.78
2018-07-23T09:27:07.399Z,27.53
2018-07-23T09:28:07.400Z,27.45
2018-07-23T09:29:07.408Z,27.33
2018-07-23T09:30:07.412Z,27.24
2018-07-23T09:31:07.428Z,27.27
2018-07-23T09:32:07.408Z,27.30
2018-07-23T09:33:07.420Z,27.46
2018-07-23T09:34:07.419Z,27.58
2018-07-23T09:35:07.418Z,27.08
2018-07-23T09:36:07.417Z,26.38
2018-07-23T09:37:07.428Z,26.23
2018-07-23T09:38:07.423Z,26.19
2018-07-23T09:39:07.425Z,26.44
2018-07-23T09:40:07.426Z,26.66
2018-07-23T09:41:07.428Z,26.88
2018-07-23T09:42:07.430Z,26.97
2018-07-23T09:43:07.435Z,27.11
2018-07-23T09:44:07.435Z,27.27
2018-07-23T09:45:07.435Z,27.27
2018-07-23T09:46:07.443Z,27.46
2018-07-23T09:47:07.443Z,27.45
2018-07-23T09:48:07.449Z,27.48
2018-07-23T09:49:07.448Z,27.16
2018-07-23T09:50:07.448Z,27.09
2018-07-23T09:51:07.450Z,27.09
2018-07-23T09:52:07.459Z,27.08
2018-07-23T09:53:07.455Z,26.97
2018-07-23T09:54:07.457Z,26.97
2018-07-23T09:55:07.460Z,27.02
2018-07-23T09:56:07.461Z,27.05
2018-07-23T09:57:07.462Z,27.06
2018-07-23T09:58:07.466Z,27.05
2018-07-23T09:59:07.467Z,27.01
2018-07-23T10:00:07.469Z,27.02
2018-07-23T10:01:07.475Z,26.93
2018-07-23T10:02:07.475Z,26.91
2018-07-23T10:03:07.630Z,26.96
2018-07-23T10:04:07.478Z,26.98
2018-07-23T10:05:07.481Z,26.93
2018-07-23T10:06:07.489Z,27.02
2018-07-23T10:07:07.489Z,26.94
2018-07-23T10:08:07.492Z,26.97
2018-07-23T10:09:07.496Z,26.93
2018-07-23T10:10:07.491Z,26.91
2018-07-23T10:11:07.494Z,26.93
2018-07-23T10:12:07.496Z,27.02
2018-07-23T10:13:07.498Z,27.03
2018-07-23T10:14:07.499Z,27.08
2018-07-23T10:15:07.502Z,26.97
2018-07-23T10:16:07.509Z,27.02
2018-07-23T10:17:07.506Z,26.98
2018-07-23T10:18:07.508Z,26.97
2018-07-23T10:19:07.510Z,27.06
2018-07-23T10:20:07.516Z,27.05
2018-07-23T10:21:07.514Z,26.86
2018-07-23T10:22:07.571Z,26.96
2018-07-23T10:23:07.520Z,26.93
2018-07-23T10:24:07.520Z,26.97
2018-07-23T10:25:07.523Z,27.06
2018-07-23T10:26:07.523Z,27.09
2018-07-23T10:27:07.527Z,27.06
2018-07-23T10:28:07.529Z,26.97
2018-07-23T10:29:07.537Z,26.84
2018-07-23T10:30:07.532Z,26.75
2018-07-23T10:31:07.537Z,26.75
2018-07-23T10:32:07.541Z,26.68
2018-07-23T10:33:07.543Z,26.61
2018-07-23T10:34:07.541Z,26.56
2018-07-23T10:35:07.582Z,26.51
2018-07-23T10:36:07.548Z,26.49
2018-07-23T10:37:07.553Z,26.59
2018-07-23T10:38:07.551Z,26.57
2018-07-23T10:39:07.556Z,26.56
2018-07-23T10:40:07.552Z,26.53
2018-07-23T10:41:07.605Z,26.53
2018-07-23T10:42:07.561Z,26.50
2018-07-23T10:43:07.565Z,26.50
2018-07-23T10:44:07.563Z,26.51
2018-07-23T10:45:07.566Z,26.49
2018-07-23T10:46:07.564Z,26.61
2018-07-23T10:47:07.567Z,26.61
2018-07-23T10:48:07.567Z,26.71
2018-07-23T10:49:07.571Z,26.69
2018-07-23T10:50:07.577Z,26.81
2018-07-23T10:51:07.575Z,26.86
2018-07-23T10:52:07.619Z,26.65
2018-07-23T10:53:07.585Z,26.71
2018-07-23T10:54:07.585Z,26.68
2018-07-23T10:55:07.581Z,26.64
2018-07-23T10:56:07.582Z,26.66
2018-07-23T10:57:07.592Z,26.71
2018-07-23T10:58:07.586Z,26.68
2018-07-23T10:59:07.587Z,26.59
2018-07-23T11:00:07.598Z,26.57
2018-07-23T11:01:07.595Z,26.53
2018-07-23T11:02:07.606Z,26.60
2018-07-23T11:03:07.601Z,26.64
2018-07-23T11:04:07.600Z,26.68
2018-07-23T11:05:07.599Z,26.72
2018-07-23T11:06:07.602Z,26.71
2018-07-23T11:07:07.605Z,26.68
2018-07-23T11:08:07.604Z,26.61
2018-07-23T11:09:07.607Z,26.56
2018-07-23T11:10:07.608Z,26.60
2018-07-23T11:11:07.610Z,26.54
2018-07-23T11:12:07.612Z,26.69
2018-07-23T11:13:07.614Z,26.78
2018-07-23T11:14:07.616Z,26.91
2018-07-23T11:15:07.618Z,27.05
2018-07-23T11:16:07.624Z,27.11
2018-07-23T11:17:07.623Z,27.05
2018-07-23T11:18:07.625Z,27.08
2018-07-23T11:19:07.654Z,26.96
2018-07-23T11:20:07.634Z,26.86
2018-07-23T11:21:07.633Z,27.05
2018-07-23T11:22:07.630Z,27.11
2018-07-23T11:23:07.633Z,27.16
2018-07-23T11:24:07.633Z,27.23
2018-07-23T11:25:38.976Z,27.33
2018-07-23T11:26:07.638Z,27.45
2018-07-23T11:27:07.639Z,27.45
2018-07-23T11:28:07.643Z,27.61
2018-07-23T11:29:07.650Z,27.59
2018-07-23T11:30:07.654Z,27.45
2018-07-23T11:31:07.648Z,27.65
2018-07-23T11:32:07.724Z,27.74
2018-07-23T11:33:07.652Z,27.69
2018-07-23T11:34:07.661Z,27.58
2018-07-23T11:35:07.662Z,27.45
2018-07-23T11:36:07.660Z,27.52
2018-07-23T11:37:07.663Z,27.40
2018-07-23T11:38:07.667Z,27.43
2018-07-23T11:39:07.669Z,27.50
2018-07-23T11:40:07.675Z,27.66
2018-07-23T11:41:07.672Z,27.80
2018-07-23T11:42:07.674Z,27.96
2018-07-23T11:43:07.678Z,28.01
2018-07-23T11:44:07.679Z,27.99
2018-07-23T11:45:07.726Z,27.81
2018-07-23T11:46:07.688Z,27.68
2018-07-23T11:47:07.695Z,27.72
2018-07-23T11:48:07.687Z,27.68
2018-07-23T11:49:07.694Z,27.86
2018-07-23T11:50:07.698Z,27.91
2018-07-23T11:51:07.696Z,28.01
2018-07-23T11:52:14.356Z,28.09
2018-07-23T11:53:07.704Z,27.95
2018-07-23T11:54:07.702Z,28.09
2018-07-23T11:55:07.707Z,28.11
2018-07-23T11:56:07.712Z,28.17
2018-07-23T11:57:07.710Z,28.28
2018-07-23T11:58:07.717Z,28.27
2018-07-23T11:59:07.717Z,28.32
2018-07-23T12:00:07.718Z,28.06
2018-07-23T12:01:07.720Z,27.98
2018-07-23T12:02:07.730Z,27.95
2018-07-23T12:03:07.726Z,28.03
2018-07-23T12:04:10.409Z,28.03
2018-07-23T12:05:07.731Z,27.80
2018-07-23T12:06:07.733Z,27.72
2018-07-23T12:07:07.745Z,27.65
2018-07-23T12:08:07.738Z,27.63
2018-07-23T12:09:07.741Z,27.55
2018-07-23T12:10:07.750Z,27.49
2018-07-23T12:11:07.750Z,27.53
2018-07-23T12:12:07.751Z,27.48
2018-07-23T12:13:07.751Z,27.42
2018-07-23T12:14:07.755Z,27.52
2018-07-23T12:15:07.758Z,27.74
2018-07-23T12:16:07.758Z,27.99
2018-07-23T12:17:07.763Z,28.17
2018-07-23T12:18:07.764Z,28.27
2018-07-23T12:19:07.768Z,28.45
2018-07-23T12:20:07.771Z,28.45
2018-07-23T12:21:07.772Z,28.42
2018-07-23T12:22:07.775Z,28.50
2018-07-23T12:23:07.781Z,28.62
2018-07-23T12:24:07.785Z,28.43
2018-07-23T12:25:07.787Z,28.28
2018-07-23T12:26:07.823Z,28.25
2018-07-23T12:27:07.790Z,28.13
2018-07-23T12:28:07.796Z,27.96
2018-07-23T12:29:07.799Z,27.93
2018-07-23T12:30:07.799Z,27.66
2018-07-23T12:31:07.800Z,27.59
2018-07-23T12:32:07.803Z,27.35
2018-07-23T12:33:07.812Z,27.25
2018-07-23T12:34:07.808Z,27.21
2018-07-23T12:35:07.812Z,27.11
2018-07-23T12:36:07.814Z,26.73
2018-07-23T12:37:07.821Z,26.49
2018-07-23T12:38:07.818Z,25.93
2018-07-23T12:39:07.821Z,26.01
2018-07-23T12:40:07.827Z,26.12
2018-07-23T12:41:07.828Z,26.21
2018-07-23T12:42:07.827Z,26.19
2018-07-23T12:43:07.831Z,26.06
2018-07-23T12:44:07.837Z,26.20
2018-07-23T12:45:07.832Z,26.13
2018-07-23T12:46:07.836Z,26.13
2018-07-23T12:47:07.936Z,26.13
2018-07-23T12:48:07.843Z,26.19
2018-07-23T12:49:07.839Z,26.20
2018-07-23T12:50:07.841Z,26.31
2018-07-23T12:51:07.842Z,26.31
2018-07-23T12:52:07.844Z,26.24